KCID/CID METAR and TAF weather

Enter ICAO airport designator
Station Type Date Time Source
KCID METAR 2020/01/21 20:52 UTC NOAA

KCID 212052Z 16011KT 6SM BR CLR M09/M11 A3041 RMK AO2 SLP320 T10891111 58031


Station Type Date Time Source
KCID Decoded METAR 2020/01/21 20:52 UTC NOAA

CEDAR RAPIDS AIRPORT, IA, United States (KCID) 41-53N 91-43W
Jan 21, 2020 - 03:52 PM EST / 2020.01.21 2052 UTC
Wind: from the SSE (160 degrees) at 13 MPH (11 KT):0
Visibility: 6 mile(s):0
Sky conditions: clear
Weather: mist
Temperature: 16.0 F (-8.9 C)
Windchill: 1 F (-17 C):1
Dew Point: 12.0 F (-11.1 C)
Relative Humidity: 84%
Pressure (altimeter): 30.41 in. Hg (1029 hPa)
Pressure tendency: 0.09 inches (3.1 hPa) lower than three hours ago
ob: KCID 212052Z 16011KT 6SM BR CLR M09/M11 A3041 RMK AO2 SLP320 T10891111 58031
cycle: 21

Station Type Date Time Source
KCID TAF 2020/01/21 18:30 UTC NOAA

TAF KCID 211727Z 2118/2218 18007KT 5SM BR SCT250
FM212000 20011KT 6SM BR SCT010 BKN250
FM220200 17010KT 6SM BR BKN150 WS020/21040KT
FM221400 19012G20KT P6SM OVC050

Example: see airport list